createdAt,value
2019-01-28T00:01:13.199Z,86.80
2019-01-28T00:03:44.523Z,87.10
2019-01-28T00:06:15.309Z,87.50
2019-01-28T00:08:46.225Z,88.10
2019-01-28T00:11:16.927Z,88.00
2019-01-28T00:13:47.678Z,87.70
2019-01-28T00:16:18.510Z,87.70
2019-01-28T00:18:49.104Z,87.10
2019-01-28T00:21:19.812Z,87.20
2019-01-28T00:23:50.906Z,87.20
2019-01-28T00:26:21.537Z,87.00
2019-01-28T00:28:52.503Z,87.30
2019-01-28T00:31:23.222Z,87.40
2019-01-28T00:33:53.877Z,87.00
2019-01-28T00:36:24.757Z,87.40
2019-01-28T00:38:55.969Z,87.20
2019-01-28T00:41:26.683Z,87.30
2019-01-28T00:43:57.244Z,87.50
2019-01-28T00:46:27.872Z,87.50
2019-01-28T00:48:58.442Z,87.10
2019-01-28T00:51:29.091Z,87.20
2019-01-28T00:53:59.678Z,87.30
2019-01-28T00:56:30.297Z,86.90
2019-01-28T00:59:01.125Z,86.40
2019-01-28T01:01:32.314Z,85.90
2019-01-28T01:04:02.984Z,85.50
2019-01-28T01:06:33.650Z,85.40
2019-01-28T01:09:07.184Z,85.30
2019-01-28T01:11:37.763Z,85.00
2019-01-28T01:14:09.057Z,84.90
2019-01-28T01:16:39.712Z,84.50
2019-01-28T01:19:10.329Z,84.90
2019-01-28T01:21:41.121Z,84.60
2019-01-28T01:24:11.694Z,84.50
2019-01-28T01:26:42.283Z,84.70
2019-01-28T01:29:12.954Z,84.40
2019-01-28T01:31:43.598Z,83.80
2019-01-28T01:34:14.209Z,83.90
2019-01-28T01:36:44.840Z,83.80
2019-01-28T01:39:15.433Z,83.90
2019-01-28T01:41:46.001Z,83.80
2019-01-28T01:44:16.572Z,83.60
2019-01-28T01:46:47.175Z,83.50
2019-01-28T01:49:17.779Z,83.20
2019-01-28T01:51:48.405Z,83.40
2019-01-28T01:54:19.122Z,83.40
2019-01-28T01:56:49.702Z,83.50
2019-01-28T01:59:20.379Z,83.50
2019-01-28T02:01:51.049Z,83.40
2019-01-28T02:04:21.904Z,83.50
2019-01-28T02:06:52.537Z,83.30
2019-01-28T02:09:23.293Z,82.70
2019-01-28T02:11:54.074Z,82.70
2019-01-28T02:14:24.722Z,82.60
2019-01-28T02:16:55.394Z,82.20
2019-01-28T02:19:26.045Z,82.10
2019-01-28T02:21:56.632Z,82.10
2019-01-28T02:24:27.256Z,81.90
2019-01-28T02:26:58.278Z,81.90
2019-01-28T02:29:28.980Z,81.80
2019-01-28T02:31:59.578Z,81.90
2019-01-28T02:34:30.438Z,81.70
2019-01-28T02:37:01.074Z,82.10
2019-01-28T02:39:31.770Z,81.90
2019-01-28T02:42:02.542Z,81.80
2019-01-28T02:44:33.210Z,82.10
2019-01-28T02:47:04.268Z,82.10
2019-01-28T02:49:34.861Z,82.10
2019-01-28T02:52:05.626Z,82.00
2019-01-28T02:54:36.216Z,81.30
2019-01-28T02:57:06.976Z,81.40
2019-01-28T02:59:37.552Z,81.40
2019-01-28T03:02:08.219Z,81.30
2019-01-28T03:04:38.823Z,81.30
2019-01-28T03:07:09.402Z,81.80
2019-01-28T03:09:40.345Z,81.30
2019-01-28T03:12:11.009Z,81.40
2019-01-28T03:14:41.576Z,81.50
2019-01-28T03:17:12.175Z,81.40
2019-01-28T03:19:42.838Z,81.80
2019-01-28T03:22:13.446Z,81.90
2019-01-28T03:24:44.128Z,82.70
2019-01-28T03:27:15.241Z,82.80
2019-01-28T03:29:45.916Z,83.00
2019-01-28T03:32:20.322Z,83.60
2019-01-28T03:34:50.918Z,83.70
2019-01-28T03:37:21.567Z,84.10
2019-01-28T03:39:52.902Z,83.90
2019-01-28T03:42:23.620Z,84.00
2019-01-28T03:44:54.565Z,84.00
2019-01-28T03:47:25.706Z,84.10
2019-01-28T03:49:56.360Z,83.90
2019-01-28T03:52:27.174Z,84.20
2019-01-28T03:54:58.015Z,83.90
2019-01-28T03:57:28.742Z,83.40
2019-01-28T03:59:59.649Z,83.30
2019-01-28T04:02:30.342Z,83.80
2019-01-28T04:05:01.062Z,83.80
2019-01-28T04:07:31.739Z,83.20
2019-01-28T04:10:02.370Z,84.10
2019-01-28T04:12:32.969Z,84.70
2019-01-28T04:15:05.192Z,84.90
2019-01-28T04:17:35.812Z,85.10
2019-01-28T04:20:07.914Z,85.50
2019-01-28T04:22:38.531Z,85.60
2019-01-28T04:25:10.100Z,85.50
2019-01-28T04:27:40.752Z,85.50
2019-01-28T04:30:14.607Z,85.20
2019-01-28T04:32:45.251Z,85.30
2019-01-28T04:35:16.044Z,85.30
2019-01-28T04:37:46.697Z,85.00
2019-01-28T04:40:17.534Z,85.00
2019-01-28T04:42:48.319Z,84.60
2019-01-28T04:45:22.163Z,84.80
2019-01-28T04:47:53.076Z,84.80
2019-01-28T04:50:23.684Z,84.60
2019-01-28T04:52:54.853Z,84.30
2019-01-28T04:55:25.471Z,84.10
2019-01-28T04:57:56.212Z,83.80
2019-01-28T05:00:27.021Z,83.60
2019-01-28T05:02:57.838Z,83.80
2019-01-28T05:05:28.655Z,83.70
2019-01-28T05:07:59.715Z,83.20
2019-01-28T05:10:30.331Z,83.30
2019-01-28T05:13:00.866Z,83.60
2019-01-28T05:15:31.570Z,84.50
2019-01-28T05:18:02.143Z,83.60
2019-01-28T05:20:32.838Z,83.90
2019-01-28T05:23:03.747Z,84.00
2019-01-28T05:25:34.338Z,83.60
2019-01-28T05:28:05.414Z,83.70
2019-01-28T05:30:36.104Z,84.00
2019-01-28T05:33:08.733Z,83.90
2019-01-28T05:35:39.405Z,84.10
2019-01-28T05:38:10.000Z,83.80
2019-01-28T05:40:40.734Z,83.90
2019-01-28T05:43:11.821Z,83.50
2019-01-28T05:45:42.691Z,83.70
2019-01-28T05:48:13.315Z,83.40
2019-01-28T05:50:43.996Z,83.50
2019-01-28T05:53:14.875Z,83.70
2019-01-28T05:55:45.447Z,83.20
2019-01-28T05:58:16.287Z,82.50
2019-01-28T06:00:47.019Z,83.00
2019-01-28T06:03:18.002Z,83.00
2019-01-28T06:05:48.722Z,83.00
2019-01-28T06:08:19.383Z,82.80
2019-01-28T06:10:49.907Z,82.80
2019-01-28T06:13:20.763Z,82.90
2019-01-28T06:15:51.353Z,83.00
2019-01-28T06:18:22.041Z,82.70
2019-01-28T06:20:52.779Z,82.70
2019-01-28T06:23:23.649Z,82.00
2019-01-28T06:25:54.701Z,82.00
2019-01-28T06:28:25.601Z,81.90
2019-01-28T06:30:56.196Z,81.90
2019-01-28T06:33:27.160Z,81.40
2019-01-28T06:35:58.036Z,81.60
2019-01-28T06:38:28.621Z,81.40
2019-01-28T06:40:59.231Z,81.60
2019-01-28T06:43:29.813Z,81.40
2019-01-28T06:46:00.361Z,81.30
2019-01-28T06:48:31.083Z,81.50
2019-01-28T06:51:01.666Z,81.60
2019-01-28T06:53:32.254Z,81.50
2019-01-28T06:56:02.799Z,81.20
2019-01-28T06:58:39.298Z,80.80
2019-01-28T07:01:10.219Z,80.70
2019-01-28T07:03:40.777Z,80.60
2019-01-28T07:06:11.469Z,80.50
2019-01-28T07:08:43.832Z,80.70
2019-01-28T07:11:14.548Z,80.40
2019-01-28T07:13:45.119Z,80.60
2019-01-28T07:16:16.181Z,80.30
2019-01-28T07:18:46.757Z,79.70
2019-01-28T07:21:17.783Z,80.10
2019-01-28T07:23:48.469Z,79.90
2019-01-28T07:26:19.106Z,79.20
2019-01-28T07:28:49.741Z,79.40
2019-01-28T07:31:20.462Z,79.40
2019-01-28T07:33:51.046Z,79.70
2019-01-28T07:36:21.677Z,79.60
2019-01-28T07:38:52.245Z,79.90
2019-01-28T07:41:23.016Z,79.80
2019-01-28T07:43:53.931Z,79.40
2019-01-28T07:46:26.051Z,79.50
2019-01-28T07:48:56.633Z,79.50
2019-01-28T07:51:27.532Z,80.70
2019-01-28T07:53:58.178Z,79.50
2019-01-28T07:56:29.046Z,79.60
2019-01-28T07:58:59.919Z,79.50
2019-01-28T08:01:30.558Z,79.80
2019-01-28T08:04:01.201Z,80.20
2019-01-28T08:06:31.878Z,80.10
2019-01-28T08:09:02.724Z,80.00
2019-01-28T08:11:33.371Z,80.20
2019-01-28T08:14:04.301Z,79.80
2019-01-28T08:16:34.893Z,79.30
2019-01-28T08:19:05.513Z,79.40
2019-01-28T08:21:36.086Z,79.70
2019-01-28T08:24:06.763Z,79.30
2019-01-28T08:26:37.370Z,79.40
2019-01-28T08:29:07.969Z,79.50
2019-01-28T08:31:39.192Z,79.30
2019-01-28T08:34:09.802Z,79.10
2019-01-28T08:36:40.405Z,79.30
2019-01-28T08:39:11.296Z,78.90
2019-01-28T08:41:41.917Z,79.30
2019-01-28T08:44:12.573Z,79.50
2019-01-28T08:46:43.169Z,79.40
2019-01-28T08:49:13.734Z,79.30
2019-01-28T08:51:44.513Z,79.20
2019-01-28T08:54:15.234Z,79.30
2019-01-28T08:56:46.031Z,79.80
2019-01-28T08:59:16.749Z,79.80
2019-01-28T09:01:47.553Z,80.60
2019-01-28T09:04:18.257Z,80.20
2019-01-28T09:06:48.873Z,80.20
2019-01-28T09:09:19.616Z,80.10
2019-01-28T09:11:56.178Z,80.20
2019-01-28T09:14:26.892Z,80.60
2019-01-28T09:16:57.636Z,80.80
2019-01-28T09:19:28.262Z,81.00
2019-01-28T09:21:58.968Z,80.60
2019-01-28T09:24:29.665Z,81.10
2019-01-28T09:27:00.780Z,81.10
2019-01-28T09:29:31.370Z,81.30
2019-01-28T09:32:02.066Z,81.20
2019-01-28T09:34:32.674Z,81.80
2019-01-28T09:37:03.234Z,81.80
2019-01-28T09:39:33.913Z,81.50
2019-01-28T09:42:04.718Z,81.80
2019-01-28T09:44:35.434Z,81.90
2019-01-28T09:47:06.129Z,82.20
2019-01-28T09:49:36.702Z,81.90
2019-01-28T09:52:07.402Z,82.00
2019-01-28T09:54:38.289Z,81.70
2019-01-28T09:57:09.001Z,81.50
2019-01-28T09:59:39.751Z,82.10
2019-01-28T10:02:10.388Z,80.50
2019-01-28T10:04:42.263Z,80.20
2019-01-28T10:07:12.825Z,79.40
2019-01-28T10:09:43.351Z,79.40
2019-01-28T10:12:14.831Z,79.20
2019-01-28T10:14:45.454Z,79.00
2019-01-28T10:17:16.100Z,78.50
2019-01-28T10:19:46.653Z,78.20
2019-01-28T10:22:17.278Z,78.30
2019-01-28T10:24:47.829Z,78.10
2019-01-28T10:27:18.377Z,78.00
2019-01-28T10:29:49.109Z,78.30
2019-01-28T10:32:19.805Z,77.70
2019-01-28T10:34:51.673Z,77.80
2019-01-28T10:37:22.777Z,78.90
2019-01-28T10:39:53.382Z,80.00
2019-01-28T10:42:23.934Z,79.40
2019-01-28T10:44:54.842Z,79.30
2019-01-28T10:47:25.721Z,78.90
2019-01-28T10:49:56.293Z,77.60
2019-01-28T10:52:26.953Z,76.30
2019-01-28T10:54:57.846Z,75.80
2019-01-28T10:57:28.475Z,75.50
2019-01-28T10:59:59.145Z,73.00
2019-01-28T11:02:29.874Z,70.30
2019-01-28T11:05:00.498Z,70.00
2019-01-28T11:07:31.063Z,69.90
2019-01-28T11:10:01.973Z,69.70
2019-01-28T11:12:32.909Z,68.50
2019-01-28T11:15:04.248Z,68.10
2019-01-28T11:17:35.037Z,68.70
2019-01-28T11:20:07.000Z,70.50
2019-01-28T11:22:37.795Z,70.50
2019-01-28T11:25:12.286Z,70.70
2019-01-28T11:27:43.081Z,70.80
2019-01-28T11:30:19.925Z,71.40
2019-01-28T11:32:50.681Z,72.80
2019-01-28T11:35:21.367Z,73.50
2019-01-28T11:37:52.228Z,74.60
2019-01-28T11:40:23.320Z,75.20
2019-01-28T11:42:54.469Z,74.90
2019-01-28T11:45:28.650Z,75.40
2019-01-28T11:48:00.149Z,75.50
2019-01-28T11:50:31.579Z,75.80
2019-01-28T11:53:02.161Z,76.40
2019-01-28T11:55:32.874Z,76.80
2019-01-28T11:58:03.553Z,77.00
2019-01-28T12:00:42.690Z,77.60
2019-01-28T12:03:13.646Z,77.80
2019-01-28T12:05:44.331Z,77.80
2019-01-28T12:08:15.190Z,78.50
2019-01-28T12:10:46.452Z,79.00
2019-01-28T12:13:20.507Z,77.90
2019-01-28T12:15:51.090Z,78.90
2019-01-28T12:18:21.991Z,79.80
2019-01-28T12:20:53.591Z,80.40
2019-01-28T12:23:24.527Z,80.90
2019-01-28T12:25:55.210Z,80.80
2019-01-28T12:28:25.843Z,80.60
2019-01-28T12:30:56.457Z,81.20
2019-01-28T12:33:27.114Z,81.20
2019-01-28T12:35:57.802Z,81.60
2019-01-28T12:38:30.602Z,82.70
2019-01-28T12:41:01.355Z,83.50
2019-01-28T12:43:32.039Z,84.00
2019-01-28T12:46:03.399Z,84.90
2019-01-28T12:48:34.298Z,84.60
2019-01-28T12:51:05.175Z,84.80
2019-01-28T12:53:37.573Z,85.00
2019-01-28T12:56:11.154Z,85.40
2019-01-28T12:58:42.637Z,85.20
2019-01-28T13:01:13.377Z,85.40
2019-01-28T13:03:44.150Z,85.90
2019-01-28T13:06:14.687Z,85.80
2019-01-28T13:08:45.549Z,87.10
2019-01-28T13:11:16.434Z,88.20
2019-01-28T13:13:47.030Z,89.20
2019-01-28T13:16:17.907Z,88.50
2019-01-28T13:18:48.575Z,88.60
2019-01-28T13:21:19.335Z,88.60
2019-01-28T13:23:49.979Z,88.70
2019-01-28T13:26:23.931Z,88.60
2019-01-28T13:28:54.567Z,89.20
2019-01-28T13:31:25.478Z,88.50
2019-01-28T13:33:56.073Z,88.90
2019-01-28T13:36:26.826Z,89.00
2019-01-28T13:38:57.566Z,88.90
2019-01-28T13:41:28.137Z,89.60
2019-01-28T13:43:59.369Z,89.50
2019-01-28T13:46:29.947Z,89.90
2019-01-28T13:49:00.782Z,90.00
2019-01-28T13:51:31.670Z,90.50
2019-01-28T13:54:02.307Z,90.60
2019-01-28T13:56:32.919Z,90.70
2019-01-28T13:59:03.959Z,90.90
2019-01-28T14:01:34.728Z,91.00
2019-01-28T14:04:06.061Z,91.00
2019-01-28T14:06:37.407Z,90.80
2019-01-28T14:09:10.145Z,90.80
2019-01-28T14:11:43.511Z,90.60
2019-01-28T14:14:20.637Z,90.30
2019-01-28T14:16:51.432Z,90.60
2019-01-28T14:19:27.429Z,90.60
2019-01-28T14:22:00.843Z,90.60
2019-01-28T14:24:31.778Z,90.80
2019-01-28T14:27:04.359Z,90.80
2019-01-28T14:29:35.134Z,91.10
2019-01-28T14:32:05.895Z,91.60
2019-01-28T14:34:36.450Z,91.90
2019-01-28T14:37:07.235Z,92.00
2019-01-28T14:39:38.429Z,92.10
2019-01-28T14:42:09.155Z,92.10
2019-01-28T14:44:39.812Z,92.10
2019-01-28T14:47:10.527Z,92.20
2019-01-28T14:49:41.324Z,92.30
2019-01-28T14:52:12.182Z,92.20
2019-01-28T14:54:42.829Z,92.40
2019-01-28T14:57:13.556Z,92.40
2019-01-28T14:59:44.456Z,92.20
2019-01-28T15:02:15.555Z,92.10
2019-01-28T15:04:46.371Z,92.10
2019-01-28T15:07:17.004Z,92.00
2019-01-28T15:09:47.586Z,92.20
2019-01-28T15:12:18.367Z,92.10
2019-01-28T15:14:49.038Z,92.00
2019-01-28T15:17:19.651Z,92.00
2019-01-28T15:19:50.717Z,91.80
2019-01-28T15:22:21.760Z,91.80
2019-01-28T15:24:52.349Z,91.80
2019-01-28T15:27:22.986Z,91.70
2019-01-28T15:29:53.618Z,92.10
2019-01-28T15:32:24.595Z,92.20
2019-01-28T15:34:55.269Z,92.20
2019-01-28T15:37:25.969Z,92.50
2019-01-28T15:39:56.710Z,92.20
2019-01-28T15:42:27.284Z,92.30
2019-01-28T15:44:57.902Z,92.30
2019-01-28T15:47:28.573Z,92.30
2019-01-28T15:49:59.491Z,92.50
2019-01-28T15:52:30.091Z,92.50
2019-01-28T15:55:00.755Z,92.40
2019-01-28T15:57:31.369Z,92.40
2019-01-28T16:00:02.116Z,92.40
2019-01-28T16:02:32.724Z,92.40
2019-01-28T16:05:03.452Z,92.60
2019-01-28T16:07:34.164Z,92.70
2019-01-28T16:10:06.601Z,93.10
2019-01-28T16:12:37.247Z,92.70
2019-01-28T16:15:13.181Z,92.70
2019-01-28T16:17:43.861Z,92.70
2019-01-28T16:20:18.708Z,92.60
2019-01-28T16:22:47.655Z,92.80
2019-01-28T16:25:18.677Z,92.80
2019-01-28T16:27:49.710Z,92.90
2019-01-28T16:30:26.405Z,93.10
2019-01-28T16:32:55.291Z,93.20
2019-01-28T16:35:26.152Z,93.20
2019-01-28T16:37:57.137Z,93.20
2019-01-28T16:40:28.042Z,93.30
2019-01-28T16:42:58.951Z,93.20
2019-01-28T16:45:29.681Z,93.10
2019-01-28T16:48:00.708Z,93.10
2019-01-28T16:50:31.685Z,92.80
2019-01-28T16:53:02.473Z,92.90
2019-01-28T16:55:33.225Z,92.80
2019-01-28T16:58:04.665Z,92.60
2019-01-28T17:00:40.365Z,92.30
2019-01-28T17:03:12.454Z,92.50
2019-01-28T17:05:43.454Z,92.10
2019-01-28T17:08:14.049Z,92.30
2019-01-28T17:10:44.741Z,92.30
2019-01-28T17:13:15.316Z,92.00
2019-01-28T17:15:45.983Z,91.90
2019-01-28T17:18:16.531Z,91.40
2019-01-28T17:20:47.632Z,91.20
2019-01-28T17:23:18.553Z,91.20
2019-01-28T17:25:49.701Z,91.00
2019-01-28T17:28:20.412Z,90.80
2019-01-28T17:30:51.789Z,90.70
2019-01-28T17:33:22.413Z,91.20
2019-01-28T17:35:53.056Z,90.80
2019-01-28T17:38:23.669Z,91.10
2019-01-28T17:40:54.713Z,90.70
2019-01-28T17:43:25.327Z,90.60
2019-01-28T17:49:18.272Z,90.60
2019-01-28T17:51:51.581Z,90.90
2019-01-28T17:54:22.670Z,90.70
2019-01-28T17:56:57.195Z,90.80
2019-01-28T17:59:30.071Z,91.00
2019-01-28T18:02:02.537Z,90.80
2019-01-28T18:04:35.084Z,91.00
2019-01-28T18:07:09.963Z,91.10
2019-01-28T18:09:42.915Z,91.00
2019-01-28T18:12:15.551Z,91.00
2019-01-28T18:14:51.602Z,90.80
2019-01-28T18:17:27.051Z,90.80
2019-01-28T18:19:59.186Z,90.90
2019-01-28T18:22:44.045Z,91.40
2019-01-28T18:25:14.888Z,91.40
2019-01-28T18:27:49.028Z,91.40
2019-01-28T18:30:35.567Z,91.40
2019-01-28T18:33:11.205Z,91.40
2019-01-28T18:35:43.692Z,91.10
2019-01-28T18:38:14.362Z,90.90
2019-01-28T18:40:45.268Z,90.80
2019-01-28T18:43:17.294Z,91.10
2019-01-28T18:45:51.144Z,90.80
2019-01-28T18:48:23.024Z,90.60
2019-01-28T18:50:59.769Z,90.70
2019-01-28T18:53:28.251Z,90.80
2019-01-28T18:56:01.229Z,90.90
2019-01-28T18:58:33.127Z,90.80
2019-01-28T19:01:05.273Z,90.90
2019-01-28T19:03:38.289Z,90.90
2019-01-28T19:06:47.634Z,90.70
2019-01-28T19:09:30.998Z,90.90
2019-01-28T19:12:10.702Z,90.50
2019-01-28T19:15:06.990Z,90.60
2019-01-28T19:17:50.032Z,90.50
2019-01-28T19:20:24.988Z,90.30
2019-01-28T19:22:55.188Z,90.60
2019-01-28T19:25:27.833Z,90.70
2019-01-28T19:27:59.085Z,90.50
2019-01-28T19:30:29.938Z,90.30
2019-01-28T19:32:59.457Z,90.30
2019-01-28T19:35:31.458Z,90.30
2019-01-28T19:38:08.150Z,90.40
2019-01-28T19:40:43.444Z,90.50
2019-01-28T19:43:15.692Z,90.50
2019-01-28T19:45:47.625Z,90.80
2019-01-28T19:48:23.901Z,90.80
2019-01-28T19:50:59.943Z,90.90
2019-01-28T19:53:35.817Z,91.00
2019-01-28T19:56:07.316Z,91.00
2019-01-28T19:58:40.147Z,90.80
2019-01-28T20:01:11.466Z,91.10
2019-01-28T20:03:42.042Z,91.40
2019-01-28T20:06:11.696Z,91.40
2019-01-28T20:08:43.586Z,91.50
2019-01-28T20:11:16.289Z,91.70
2019-01-28T20:13:46.841Z,91.80
2019-01-28T20:16:16.443Z,92.10
2019-01-28T20:18:51.202Z,92.10
2019-01-28T20:21:23.756Z,92.20
2019-01-28T20:23:52.281Z,92.40
2019-01-28T20:26:23.477Z,92.40
2019-01-28T20:28:59.050Z,92.60
2019-01-28T20:31:31.721Z,92.40
2019-01-28T20:34:01.599Z,92.50
2019-01-28T20:36:31.429Z,92.60
2019-01-28T20:39:09.232Z,92.60
2019-01-28T20:41:44.928Z,92.70
2019-01-28T20:44:20.015Z,92.60
2019-01-28T20:46:52.101Z,92.80
2019-01-28T20:49:26.567Z,92.80
2019-01-28T20:51:56.101Z,92.80
2019-01-28T20:54:30.987Z,92.80
2019-01-28T20:57:06.680Z,92.90
2019-01-28T20:59:35.657Z,92.70
2019-01-28T21:02:08.075Z,92.90
2019-01-28T21:04:37.650Z,92.90
2019-01-28T21:07:13.099Z,92.70
2019-01-28T21:09:48.298Z,92.70
2019-01-28T21:12:19.506Z,92.60
2019-01-28T21:14:49.071Z,92.80
2019-01-28T21:17:21.330Z,92.80
2019-01-28T21:19:53.487Z,92.60
2019-01-28T21:22:28.890Z,92.60
2019-01-28T21:25:00.327Z,92.60
2019-01-28T21:27:29.920Z,92.60
2019-01-28T21:30:03.936Z,92.70
2019-01-28T21:32:33.454Z,92.60
2019-01-28T21:35:09.181Z,92.40
2019-01-28T21:38:00.609Z,92.40
2019-01-28T21:40:28.222Z,92.40
2019-01-28T21:43:01.985Z,92.50
2019-01-28T21:45:40.337Z,92.40
2019-01-28T21:48:11.560Z,92.20
2019-01-28T21:50:43.609Z,92.10
2019-01-28T21:53:17.688Z,92.10
2019-01-28T21:55:56.458Z,92.00
2019-01-28T21:58:30.118Z,92.40
2019-01-28T22:01:05.215Z,92.20
2019-01-28T22:03:36.227Z,92.10
2019-01-28T22:06:06.945Z,91.70
2019-01-28T22:08:44.397Z,91.30
2019-01-28T22:11:17.466Z,91.30
2019-01-28T22:13:52.030Z,91.10
2019-01-28T22:16:22.947Z,91.00
2019-01-28T22:18:57.505Z,91.20
2019-01-28T22:22:18.922Z,91.30
2019-01-28T22:24:19.633Z,91.50
2019-01-28T22:26:51.250Z,91.40
2019-01-28T22:29:27.794Z,91.40
2019-01-28T22:31:58.882Z,91.50
2019-01-28T22:34:30.562Z,91.40
2019-01-28T22:37:00.327Z,91.40
2019-01-28T22:39:31.395Z,91.40
2019-01-28T22:42:02.667Z,91.50
2019-01-28T22:44:34.462Z,91.50
2019-01-28T22:47:09.279Z,91.60
2019-01-28T22:49:46.784Z,91.60
2019-01-28T22:52:16.358Z,92.00
2019-01-28T22:54:47.340Z,92.00
2019-01-28T22:57:22.633Z,92.10
2019-01-28T22:59:52.687Z,91.90
2019-01-28T23:02:28.148Z,91.90
2019-01-28T23:05:04.150Z,92.10
2019-01-28T23:07:34.724Z,92.10
2019-01-28T23:10:09.031Z,92.20
2019-01-28T23:12:40.678Z,92.20
2019-01-28T23:15:11.788Z,92.20
2019-01-28T23:17:41.683Z,92.10
2019-01-28T23:20:11.242Z,92.40
2019-01-28T23:22:41.046Z,92.40
2019-01-28T23:25:10.702Z,92.40
2019-01-28T23:27:40.465Z,92.40
2019-01-28T23:30:11.441Z,92.50
2019-01-28T23:32:40.916Z,92.60
2019-01-28T23:35:10.553Z,92.60
2019-01-28T23:37:40.036Z,92.50
2019-01-28T23:40:09.930Z,92.60
2019-01-28T23:42:39.473Z,92.90
2019-01-28T23:45:09.085Z,92.90
2019-01-28T23:47:38.605Z,92.80
2019-01-28T23:50:08.457Z,92.80
2019-01-28T23:52:38.385Z,92.70
2019-01-28T23:55:08.248Z,92.80
2019-01-28T23:57:38.338Z,92.80
